sensor_id;sensor_type;location;lat;lon;timestamp;pressure;altitude;pressure_sealevel;temperature;humidity
6134;BME280;3098;42.678;23.364;2023-04-29T00:01:37;94973.59;;;6.33;79.06
6134;BME280;3098;42.678;23.364;2023-04-29T00:04:05;94885.72;;;5.72;79.57
6134;BME280;3098;42.678;23.364;2023-04-29T00:06:32;94971.25;;;6.32;79.83
6134;BME280;3098;42.678;23.364;2023-04-29T00:08:58;94966.78;;;6.32;79.62
6134;BME280;3098;42.678;23.364;2023-04-29T00:11:26;94951.13;;;6.17;80.15
6134;BME280;3098;42.678;23.364;2023-04-29T00:13:53;94975.00;;;6.26;80.36
6134;BME280;3098;42.678;23.364;2023-04-29T00:16:21;94980.41;;;6.40;80.16
6134;BME280;3098;42.678;23.364;2023-04-29T00:18:48;94923.38;;;6.01;80.07
6134;BME280;3098;42.678;23.364;2023-04-29T00:21:15;94984.19;;;6.28;81.19
6134;BME280;3098;42.678;23.364;2023-04-29T00:23:42;94988.63;;;6.33;81.49
6134;BME280;3098;42.678;23.364;2023-04-29T00:26:09;94938.50;;;5.86;81.56
6134;BME280;3098;42.678;23.364;2023-04-29T00:28:36;94942.44;;;5.83;82.61
6134;BME280;3098;42.678;23.364;2023-04-29T00:31:03;94828.28;;;5.21;82.75
6134;BME280;3098;42.678;23.364;2023-04-29T00:33:32;94992.84;;;6.34;82.84
6134;BME280;3098;42.678;23.364;2023-04-29T00:35:59;94990.13;;;6.39;83.79
6134;BME280;3098;42.678;23.364;2023-04-29T00:38:26;94983.31;;;6.38;84.29
6134;BME280;3098;42.678;23.364;2023-04-29T00:40:54;94982.59;;;6.32;84.68
6134;BME280;3098;42.678;23.364;2023-04-29T00:43:21;94987.38;;;6.25;85.65
6134;BME280;3098;42.678;23.364;2023-04-29T00:45:49;94953.34;;;6.05;87.50
6134;BME280;3098;42.678;23.364;2023-04-29T00:48:16;94981.84;;;6.27;88.16
6134;BME280;3098;42.678;23.364;2023-04-29T00:50:45;94979.22;;;6.27;88.48
6134;BME280;3098;42.678;23.364;2023-04-29T00:53:12;94977.41;;;6.22;89.52
6134;BME280;3098;42.678;23.364;2023-04-29T00:55:40;94869.59;;;5.50;90.21
6134;BME280;3098;42.678;23.364;2023-04-29T00:58:09;94957.06;;;5.99;91.24
6134;BME280;3098;42.678;23.364;2023-04-29T01:00:37;94829.09;;;5.17;91.85
6134;BME280;3098;42.678;23.364;2023-04-29T01:03:04;94955.97;;;6.05;92.18
6134;BME280;3098;42.678;23.364;2023-04-29T01:05:31;94932.19;;;5.87;92.94
6134;BME280;3098;42.678;23.364;2023-04-29T01:08:12;94952.47;;;5.86;93.66
6134;BME280;3098;42.678;23.364;2023-04-29T01:10:48;94949.41;;;5.69;94.42
6134;BME280;3098;42.678;23.364;2023-04-29T01:13:29;94901.09;;;5.21;95.45
6134;BME280;3098;42.678;23.364;2023-04-29T01:16:00;94904.00;;;5.19;95.90
6134;BME280;3098;42.678;23.364;2023-04-29T01:18:31;94946.88;;;5.54;96.34
6134;BME280;3098;42.678;23.364;2023-04-29T01:20:59;94933.66;;;5.30;96.12
6134;BME280;3098;42.678;23.364;2023-04-29T01:23:28;94723.56;;;3.83;96.33
6134;BME280;3098;42.678;23.364;2023-04-29T01:25:56;94938.03;;;5.40;96.74
6134;BME280;3098;42.678;23.364;2023-04-29T01:28:36;94903.97;;;5.25;96.09
6134;BME280;3098;42.678;23.364;2023-04-29T01:31:07;94940.88;;;5.53;96.23
6134;BME280;3098;42.678;23.364;2023-04-29T01:33:48;94941.91;;;5.52;96.62
6134;BME280;3098;42.678;23.364;2023-04-29T01:36:22;94932.78;;;5.40;97.69
6134;BME280;3098;42.678;23.364;2023-04-29T01:39:01;94928.84;;;5.37;98.55
6134;BME280;3098;42.678;23.364;2023-04-29T01:41:34;94937.53;;;5.38;99.05
6134;BME280;3098;42.678;23.364;2023-04-29T01:44:07;94941.97;;;5.42;99.23
6134;BME280;3098;42.678;23.364;2023-04-29T01:46:37;94900.81;;;5.22;99.66
6134;BME280;3098;42.678;23.364;2023-04-29T01:49:04;94947.97;;;5.48;99.40
6134;BME280;3098;42.678;23.364;2023-04-29T01:51:32;94893.06;;;5.02;99.80
6134;BME280;3098;42.678;23.364;2023-04-29T01:54:01;94880.13;;;5.11;100.00
6134;BME280;3098;42.678;23.364;2023-04-29T01:56:29;94907.13;;;5.27;100.00
6134;BME280;3098;42.678;23.364;2023-04-29T01:58:56;94891.94;;;5.18;100.00
6134;BME280;3098;42.678;23.364;2023-04-29T02:01:23;94935.63;;;5.48;100.00
6134;BME280;3098;42.678;23.364;2023-04-29T02:03:50;94939.13;;;5.39;100.00
6134;BME280;3098;42.678;23.364;2023-04-29T02:06:17;94934.72;;;5.29;100.00
6134;BME280;3098;42.678;23.364;2023-04-29T02:08:44;94824.56;;;4.50;100.00
6134;BME280;3098;42.678;23.364;2023-04-29T02:11:14;94891.06;;;4.89;100.00
6134;BME280;3098;42.678;23.364;2023-04-29T02:13:41;94911.25;;;4.94;100.00
6134;BME280;3098;42.678;23.364;2023-04-29T02:16:08;94918.16;;;4.85;100.00
6134;BME280;3098;42.678;23.364;2023-04-29T02:18:36;94954.91;;;4.90;100.00
6134;BME280;3098;42.678;23.364;2023-04-29T02:21:03;94949.91;;;4.93;100.00
6134;BME280;3098;42.678;23.364;2023-04-29T02:23:30;94932.63;;;4.77;100.00
6134;BME280;3098;42.678;23.364;2023-04-29T02:25:57;94944.63;;;4.98;100.00
6134;BME280;3098;42.678;23.364;2023-04-29T02:28:25;94910.59;;;4.73;100.00
6134;BME280;3098;42.678;23.364;2023-04-29T02:30:52;94946.50;;;4.93;100.00
6134;BME280;3098;42.678;23.364;2023-04-29T02:33:20;94946.22;;;4.94;100.00
6134;BME280;3098;42.678;23.364;2023-04-29T02:35:47;94889.19;;;4.41;100.00
6134;BME280;3098;42.678;23.364;2023-04-29T02:38:13;94950.03;;;4.68;100.00
6134;BME280;3098;42.678;23.364;2023-04-29T02:40:41;94877.69;;;4.27;100.00
6134;BME280;3098;42.678;23.364;2023-04-29T02:43:08;94941.59;;;4.71;100.00
6134;BME280;3098;42.678;23.364;2023-04-29T02:45:37;94931.13;;;4.61;100.00
6134;BME280;3098;42.678;23.364;2023-04-29T02:48:05;94941.63;;;4.66;100.00
6134;BME280;3098;42.678;23.364;2023-04-29T02:50:32;94910.19;;;4.41;100.00
6134;BME280;3098;42.678;23.364;2023-04-29T02:53:00;94885.06;;;4.25;100.00
6134;BME280;3098;42.678;23.364;2023-04-29T02:55:27;94951.34;;;4.60;100.00
6134;BME280;3098;42.678;23.364;2023-04-29T02:57:54;94747.34;;;3.28;100.00
6134;BME280;3098;42.678;23.364;2023-04-29T03:00:21;94900.56;;;4.21;100.00
6134;BME280;3098;42.678;23.364;2023-04-29T03:02:49;94973.47;;;4.49;100.00
6134;BME280;3098;42.678;23.364;2023-04-29T03:05:17;94944.13;;;4.27;100.00
6134;BME280;3098;42.678;23.364;2023-04-29T03:07:44;94972.13;;;4.52;100.00
6134;BME280;3098;42.678;23.364;2023-04-29T03:10:11;94935.69;;;4.35;100.00
6134;BME280;3098;42.678;23.364;2023-04-29T03:12:38;94940.69;;;4.37;100.00
6134;BME280;3098;42.678;23.364;2023-04-29T03:15:07;94953.50;;;4.53;100.00
6134;BME280;3098;42.678;23.364;2023-04-29T03:17:35;94919.19;;;4.25;100.00
6134;BME280;3098;42.678;23.364;2023-04-29T03:20:04;94796.88;;;3.24;100.00
6134;BME280;3098;42.678;23.364;2023-04-29T03:22:32;94965.63;;;4.29;100.00
6134;BME280;3098;42.678;23.364;2023-04-29T03:24:59;94962.69;;;4.46;100.00
6134;BME280;3098;42.678;23.364;2023-04-29T03:27:27;94948.38;;;4.08;100.00
6134;BME280;3098;42.678;23.364;2023-04-29T03:29:54;94787.50;;;2.83;100.00
6134;BME280;3098;42.678;23.364;2023-04-29T03:32:21;94979.84;;;4.28;100.00
6134;BME280;3098;42.678;23.364;2023-04-29T03:34:48;94997.66;;;4.41;100.00
6134;BME280;3098;42.678;23.364;2023-04-29T03:37:17;94991.06;;;4.54;100.00
6134;BME280;3098;42.678;23.364;2023-04-29T03:39:44;94969.25;;;4.48;100.00
6134;BME280;3098;42.678;23.364;2023-04-29T03:42:12;95000.41;;;4.80;100.00
6134;BME280;3098;42.678;23.364;2023-04-29T03:44:39;94978.38;;;4.71;100.00
6134;BME280;3098;42.678;23.364;2023-04-29T03:47:06;95005.88;;;4.99;100.00
6134;BME280;3098;42.678;23.364;2023-04-29T03:49:34;94926.69;;;4.51;100.00
6134;BME280;3098;42.678;23.364;2023-04-29T03:52:01;95000.16;;;4.82;100.00
6134;BME280;3098;42.678;23.364;2023-04-29T03:54:31;94992.72;;;4.94;100.00
6134;BME280;3098;42.678;23.364;2023-04-29T03:56:57;94997.22;;;4.93;100.00
6134;BME280;3098;42.678;23.364;2023-04-29T03:59:25;94928.44;;;4.71;100.00
6134;BME280;3098;42.678;23.364;2023-04-29T04:01:52;94979.28;;;5.10;100.00
6134;BME280;3098;42.678;23.364;2023-04-29T04:04:19;94960.44;;;4.93;100.00
6134;BME280;3098;42.678;23.364;2023-04-29T04:06:46;94934.63;;;5.00;100.00
6134;BME280;3098;42.678;23.364;2023-04-29T04:09:16;94984.38;;;5.36;100.00
6134;BME280;3098;42.678;23.364;2023-04-29T04:11:45;95001.38;;;5.48;100.00
6134;BME280;3098;42.678;23.364;2023-04-29T04:14:12;94950.28;;;5.20;100.00
6134;BME280;3098;42.678;23.364;2023-04-29T04:16:39;94999.94;;;5.66;100.00
6134;BME280;3098;42.678;23.364;2023-04-29T04:19:06;94995.38;;;5.87;100.00
6134;BME280;3098;42.678;23.364;2023-04-29T04:21:34;94999.94;;;6.05;100.00
6134;BME280;3098;42.678;23.364;2023-04-29T04:24:01;94967.16;;;5.92;99.94
6134;BME280;3098;42.678;23.364;2023-04-29T04:26:28;94961.00;;;6.02;99.63
6134;BME280;3098;42.678;23.364;2023-04-29T04:28:57;94992.19;;;6.18;98.24
6134;BME280;3098;42.678;23.364;2023-04-29T04:31:24;94991.31;;;6.28;97.78
6134;BME280;3098;42.678;23.364;2023-04-29T04:33:51;94958.88;;;6.32;97.50
6134;BME280;3098;42.678;23.364;2023-04-29T04:36:18;94956.63;;;6.21;96.46
6134;BME280;3098;42.678;23.364;2023-04-29T04:38:45;94978.69;;;6.25;97.11
6134;BME280;3098;42.678;23.364;2023-04-29T04:41:13;94991.25;;;6.33;96.94
6134;BME280;3098;42.678;23.364;2023-04-29T04:43:40;94998.41;;;6.56;96.12
6134;BME280;3098;42.678;23.364;2023-04-29T04:46:12;94988.91;;;6.79;95.14
6134;BME280;3098;42.678;23.364;2023-04-29T04:48:39;94978.38;;;6.79;94.51
6134;BME280;3098;42.678;23.364;2023-04-29T04:51:07;94907.81;;;6.28;94.59
6134;BME280;3098;42.678;23.364;2023-04-29T04:53:34;95013.59;;;7.12;93.92
6134;BME280;3098;42.678;23.364;2023-04-29T04:56:02;95003.75;;;7.17;92.58
6134;BME280;3098;42.678;23.364;2023-04-29T04:58:30;94739.78;;;5.59;92.52
6134;BME280;3098;42.678;23.364;2023-04-29T05:00:58;94997.16;;;7.57;90.66
6134;BME280;3098;42.678;23.364;2023-04-29T05:03:27;94816.38;;;6.53;90.01
6134;BME280;3098;42.678;23.364;2023-04-29T05:05:54;94725.84;;;6.06;88.33
6134;BME280;3098;42.678;23.364;2023-04-29T05:08:21;94989.19;;;7.43;89.22
6134;BME280;3098;42.678;23.364;2023-04-29T05:10:48;94979.75;;;7.37;89.27
6134;BME280;3098;42.678;23.364;2023-04-29T05:13:16;94979.09;;;7.45;88.80
6134;BME280;3098;42.678;23.364;2023-04-29T05:15:43;94957.19;;;7.64;88.28
6134;BME280;3098;42.678;23.364;2023-04-29T05:18:11;94978.47;;;8.37;84.82
6134;BME280;3098;42.678;23.364;2023-04-29T05:20:39;94889.19;;;8.20;81.61
6134;BME280;3098;42.678;23.364;2023-04-29T05:23:07;94912.38;;;8.78;80.05
6134;BME280;3098;42.678;23.364;2023-04-29T05:25:34;94949.66;;;9.17;78.05
6134;BME280;3098;42.678;23.364;2023-04-29T05:28:02;94884.28;;;9.17;76.24
6134;BME280;3098;42.678;23.364;2023-04-29T05:30:29;94953.59;;;10.22;72.14
6134;BME280;3098;42.678;23.364;2023-04-29T05:32:56;94957.22;;;10.57;67.77
6134;BME280;3098;42.678;23.364;2023-04-29T05:35:23;94854.28;;;10.19;65.17
6134;BME280;3098;42.678;23.364;2023-04-29T05:37:51;94963.41;;;9.99;68.66
6134;BME280;3098;42.678;23.364;2023-04-29T05:40:18;94960.84;;;10.61;66.95
6134;BME280;3098;42.678;23.364;2023-04-29T05:42:47;94901.44;;;10.87;64.99
6134;BME280;3098;42.678;23.364;2023-04-29T05:45:15;94962.19;;;11.88;61.49
6134;BME280;3098;42.678;23.364;2023-04-29T05:47:42;94928.16;;;12.37;58.96
6134;BME280;3098;42.678;23.364;2023-04-29T05:50:09;94951.69;;;10.75;62.56
6134;BME280;3098;42.678;23.364;2023-04-29T05:52:37;94864.75;;;10.24;63.42
6134;BME280;3098;42.678;23.364;2023-04-29T05:55:07;94958.41;;;11.89;61.79
6134;BME280;3098;42.678;23.364;2023-04-29T05:57:34;94871.34;;;12.79;58.42
6134;BME280;3098;42.678;23.364;2023-04-29T06:00:02;94885.53;;;13.42;51.98
6134;BME280;3098;42.678;23.364;2023-04-29T06:02:31;94906.50;;;13.64;51.45
6134;BME280;3098;42.678;23.364;2023-04-29T06:04:58;94945.78;;;16.14;45.30
6134;BME280;3098;42.678;23.364;2023-04-29T06:07:26;94967.38;;;13.95;47.94
6134;BME280;3098;42.678;23.364;2023-04-29T06:09:54;94955.50;;;13.92;49.06
6134;BME280;3098;42.678;23.364;2023-04-29T06:12:23;94957.22;;;15.99;43.55
6134;BME280;3098;42.678;23.364;2023-04-29T06:14:50;94933.47;;;15.45;43.33
6134;BME280;3098;42.678;23.364;2023-04-29T06:17:18;94898.91;;;17.45;39.82
6134;BME280;3098;42.678;23.364;2023-04-29T06:19:45;94935.97;;;19.75;35.33
6134;BME280;3098;42.678;23.364;2023-04-29T06:22:12;94867.13;;;20.04;33.49
6134;BME280;3098;42.678;23.364;2023-04-29T06:24:39;94960.78;;;16.46;38.05
6134;BME280;3098;42.678;23.364;2023-04-29T06:27:06;94960.44;;;17.22;39.83
6134;BME280;3098;42.678;23.364;2023-04-29T06:29:35;94953.06;;;19.34;35.36
6134;BME280;3098;42.678;23.364;2023-04-29T06:32:02;94928.34;;;15.52;40.24
6134;BME280;3098;42.678;23.364;2023-04-29T06:34:29;94960.91;;;15.18;42.23
6134;BME280;3098;42.678;23.364;2023-04-29T06:36:58;94964.06;;;16.67;40.37
6134;BME280;3098;42.678;23.364;2023-04-29T06:39:25;94964.41;;;16.38;40.56
6134;BME280;3098;42.678;23.364;2023-04-29T06:41:52;94968.19;;;16.65;40.18
6134;BME280;3098;42.678;23.364;2023-04-29T06:44:19;94900.03;;;16.62;40.40
6134;BME280;3098;42.678;23.364;2023-04-29T06:46:48;94944.09;;;17.12;38.51
6134;BME280;3098;42.678;23.364;2023-04-29T06:49:15;94897.50;;;20.04;34.30
6134;BME280;3098;42.678;23.364;2023-04-29T06:51:42;94939.56;;;20.46;33.54
6134;BME280;3098;42.678;23.364;2023-04-29T06:54:09;94920.19;;;20.33;33.21
6134;BME280;3098;42.678;23.364;2023-04-29T06:56:36;94891.94;;;20.20;33.40
6134;BME280;3098;42.678;23.364;2023-04-29T06:59:04;94961.31;;;19.44;34.37
6134;BME280;3098;42.678;23.364;2023-04-29T07:01:31;94917.16;;;15.23;40.85
6134;BME280;3098;42.678;23.364;2023-04-29T07:04:01;94952.50;;;14.47;44.50
6134;BME280;3098;42.678;23.364;2023-04-29T07:06:29;94923.91;;;15.44;43.70
6134;BME280;3098;42.678;23.364;2023-04-29T07:08:56;94877.22;;;16.09;41.59
6134;BME280;3098;42.678;23.364;2023-04-29T07:11:24;94879.63;;;15.99;41.65
6134;BME280;3098;42.678;23.364;2023-04-29T07:13:54;94943.91;;;17.20;39.84
6134;BME280;3098;42.678;23.364;2023-04-29T07:16:21;94918.56;;;17.68;39.62
6134;BME280;3098;42.678;23.364;2023-04-29T07:18:50;94937.66;;;18.21;38.65
6134;BME280;3098;42.678;23.364;2023-04-29T07:21:21;94941.53;;;17.50;39.22
6134;BME280;3098;42.678;23.364;2023-04-29T07:23:48;94849.13;;;16.94;39.84
6134;BME280;3098;42.678;23.364;2023-04-29T07:26:16;94808.22;;;17.51;38.26
6134;BME280;3098;42.678;23.364;2023-04-29T07:28:44;94921.06;;;19.81;36.36
6134;BME280;3098;42.678;23.364;2023-04-29T07:31:11;94942.53;;;21.11;33.39
6134;BME280;3098;42.678;23.364;2023-04-29T07:33:41;94943.19;;;19.68;35.96
6134;BME280;3098;42.678;23.364;2023-04-29T07:36:09;94930.75;;;20.52;35.37
6134;BME280;3098;42.678;23.364;2023-04-29T07:38:38;94924.47;;;22.95;31.51
6134;BME280;3098;42.678;23.364;2023-04-29T07:41:06;94941.81;;;22.65;30.39
6134;BME280;3098;42.678;23.364;2023-04-29T07:43:34;94942.88;;;22.32;30.95
6134;BME280;3098;42.678;23.364;2023-04-29T07:46:03;94779.91;;;20.16;31.30
6134;BME280;3098;42.678;23.364;2023-04-29T07:48:30;94880.00;;;22.53;29.77
6134;BME280;3098;42.678;23.364;2023-04-29T07:50:58;94886.84;;;22.22;29.70
6134;BME280;3098;42.678;23.364;2023-04-29T07:53:26;94691.16;;;20.84;28.95
6134;BME280;3098;42.678;23.364;2023-04-29T07:55:55;94929.00;;;21.62;29.98
6134;BME280;3098;42.678;23.364;2023-04-29T07:58:22;94791.06;;;21.09;30.22
6134;BME280;3098;42.678;23.364;2023-04-29T08:00:50;94861.81;;;22.32;29.08
6134;BME280;3098;42.678;23.364;2023-04-29T08:03:17;94748.69;;;22.49;28.27
6134;BME280;3098;42.678;23.364;2023-04-29T08:05:44;94850.66;;;22.55;28.66
6134;BME280;3098;42.678;23.364;2023-04-29T08:08:13;94861.53;;;21.04;30.43
6134;BME280;3098;42.678;23.364;2023-04-29T08:10:39;94890.81;;;21.05;30.98
6134;BME280;3098;42.678;23.364;2023-04-29T08:13:09;94916.78;;;21.24;31.20
6134;BME280;3098;42.678;23.364;2023-04-29T08:15:38;94865.75;;;22.70;28.55
6134;BME280;3098;42.678;23.364;2023-04-29T08:18:05;94913.75;;;25.07;27.27
6134;BME280;3098;42.678;23.364;2023-04-29T08:20:33;94874.78;;;21.19;29.74
6134;BME280;3098;42.678;23.364;2023-04-29T08:23:00;94904.38;;;23.17;28.11
6134;BME280;3098;42.678;23.364;2023-04-29T08:25:27;94760.84;;;21.47;28.32
6134;BME280;3098;42.678;23.364;2023-04-29T08:27:55;94910.09;;;22.45;28.76
6134;BME280;3098;42.678;23.364;2023-04-29T08:30:24;94804.66;;;22.34;28.63
6134;BME280;3098;42.678;23.364;2023-04-29T08:32:51;94846.03;;;23.16;28.27
6134;BME280;3098;42.678;23.364;2023-04-29T08:35:19;94744.47;;;22.48;28.82
6134;BME280;3098;42.678;23.364;2023-04-29T08:37:46;94911.19;;;24.10;26.49
6134;BME280;3098;42.678;23.364;2023-04-29T08:40:13;94905.88;;;23.71;26.70
6134;BME280;3098;42.678;23.364;2023-04-29T08:42:44;94914.34;;;23.94;26.09
6134;BME280;3098;42.678;23.364;2023-04-29T08:45:12;94900.53;;;19.70;29.64
6134;BME280;3098;42.678;23.364;2023-04-29T08:47:44;94862.34;;;19.90;30.25
6134;BME280;3098;42.678;23.364;2023-04-29T08:50:12;94898.09;;;20.54;29.48
6134;BME280;3098;42.678;23.364;2023-04-29T08:52:40;94894.50;;;20.87;28.36
6134;BME280;3098;42.678;23.364;2023-04-29T08:55:08;94526.25;;;19.85;27.59
6134;BME280;3098;42.678;23.364;2023-04-29T08:57:36;94723.97;;;21.90;26.54
6134;BME280;3098;42.678;23.364;2023-04-29T09:00:06;94884.47;;;21.28;28.98
6134;BME280;3098;42.678;23.364;2023-04-29T09:02:38;94878.91;;;21.68;29.69
6134;BME280;3098;42.678;23.364;2023-04-29T09:05:09;94663.34;;;21.70;28.47
6134;BME280;3098;42.678;23.364;2023-04-29T09:07:37;94846.34;;;23.64;27.29
6134;BME280;3098;42.678;23.364;2023-04-29T09:10:06;94827.06;;;23.23;25.77
6134;BME280;3098;42.678;23.364;2023-04-29T09:12:34;94840.19;;;23.28;25.53
6134;BME280;3098;42.678;23.364;2023-04-29T09:15:01;94866.69;;;24.11;25.30
6134;BME280;3098;42.678;23.364;2023-04-29T09:17:42;94814.47;;;23.96;26.44
6134;BME280;3098;42.678;23.364;2023-04-29T09:20:27;94870.56;;;21.94;25.92
6134;BME280;3098;42.678;23.364;2023-04-29T09:22:57;94678.22;;;19.98;28.55
6134;BME280;3098;42.678;23.364;2023-04-29T09:25:25;94865.69;;;20.94;27.05
6134;BME280;3098;42.678;23.364;2023-04-29T09:27:53;94862.50;;;20.82;27.65
6134;BME280;3098;42.678;23.364;2023-04-29T09:30:21;94792.31;;;23.00;25.64
6134;BME280;3098;42.678;23.364;2023-04-29T09:33:07;94681.53;;;22.29;25.83
6134;BME280;3098;42.678;23.364;2023-04-29T09:35:39;94691.84;;;21.50;27.12
6134;BME280;3098;42.678;23.364;2023-04-29T09:38:11;94786.41;;;20.48;28.71
6134;BME280;3098;42.678;23.364;2023-04-29T09:40:40;94814.81;;;21.47;27.48
6134;BME280;3098;42.678;23.364;2023-04-29T09:43:14;94847.13;;;20.82;29.62
6134;BME280;3098;42.678;23.364;2023-04-29T09:45:45;94744.53;;;21.26;26.56
6134;BME280;3098;42.678;23.364;2023-04-29T09:48:13;94837.09;;;22.38;27.41
6134;BME280;3098;42.678;23.364;2023-04-29T09:50:43;94835.91;;;22.10;28.08
6134;BME280;3098;42.678;23.364;2023-04-29T09:53:27;94800.69;;;20.12;29.52
6134;BME280;3098;42.678;23.364;2023-04-29T09:55:58;94793.56;;;19.60;29.98
6134;BME280;3098;42.678;23.364;2023-04-29T09:58:30;94828.63;;;20.84;29.68
6134;BME280;3098;42.678;23.364;2023-04-29T10:01:02;94647.63;;;19.73;29.01
6134;BME280;3098;42.678;23.364;2023-04-29T10:03:31;94815.19;;;19.11;30.76
6134;BME280;3098;42.678;23.364;2023-04-29T10:06:01;94744.75;;;18.98;31.06
6134;BME280;3098;42.678;23.364;2023-04-29T10:08:30;94803.81;;;20.21;29.86
6134;BME280;3098;42.678;23.364;2023-04-29T10:10:59;94606.41;;;18.55;29.78
6134;BME280;3098;42.678;23.364;2023-04-29T10:13:27;94761.41;;;20.11;30.70
6134;BME280;3098;42.678;23.364;2023-04-29T10:15:59;94770.31;;;20.15;29.74
6134;BME280;3098;42.678;23.364;2023-04-29T10:18:34;94663.50;;;18.78;29.62
6134;BME280;3098;42.678;23.364;2023-04-29T10:21:06;94750.81;;;19.51;29.69
6134;BME280;3098;42.678;23.364;2023-04-29T10:23:35;94695.22;;;19.29;29.82
6134;BME280;3098;42.678;23.364;2023-04-29T10:26:03;94792.00;;;20.29;29.90
6134;BME280;3098;42.678;23.364;2023-04-29T10:28:31;94779.31;;;19.92;28.97
6134;BME280;3098;42.678;23.364;2023-04-29T10:31:01;94723.50;;;19.49;30.39
6134;BME280;3098;42.678;23.364;2023-04-29T10:33:30;94761.91;;;19.83;30.50
6134;BME280;3098;42.678;23.364;2023-04-29T10:35:59;94718.75;;;19.72;30.88
6134;BME280;3098;42.678;23.364;2023-04-29T10:38:34;94718.25;;;19.60;30.57
6134;BME280;3098;42.678;23.364;2023-04-29T10:41:08;94787.53;;;20.47;29.52
6134;BME280;3098;42.678;23.364;2023-04-29T10:43:37;94783.34;;;19.72;29.37
6134;BME280;3098;42.678;23.364;2023-04-29T10:46:20;94805.13;;;19.60;29.89
6134;BME280;3098;42.678;23.364;2023-04-29T10:48:49;94737.66;;;19.13;29.15
6134;BME280;3098;42.678;23.364;2023-04-29T10:51:41;94759.38;;;19.30;28.63
6134;BME280;3098;42.678;23.364;2023-04-29T10:54:13;94750.16;;;19.31;29.92
6134;BME280;3098;42.678;23.364;2023-04-29T10:56:43;94774.19;;;19.43;29.97
6134;BME280;3098;42.678;23.364;2023-04-29T10:59:15;94713.41;;;18.79;29.15
6134;BME280;3098;42.678;23.364;2023-04-29T11:01:44;94530.50;;;17.50;28.23
6134;BME280;3098;42.678;23.364;2023-04-29T11:04:13;94587.75;;;17.84;29.06
6134;BME280;3098;42.678;23.364;2023-04-29T11:06:43;94663.94;;;18.02;30.07
6134;BME280;3098;42.678;23.364;2023-04-29T11:09:14;94767.72;;;18.66;30.67
6134;BME280;3098;42.678;23.364;2023-04-29T11:11:46;94716.88;;;18.54;30.58
6134;BME280;3098;42.678;23.364;2023-04-29T11:14:18;94691.53;;;18.51;29.71
6134;BME280;3098;42.678;23.364;2023-04-29T11:16:47;94703.09;;;18.55;28.79
6134;BME280;3098;42.678;23.364;2023-04-29T11:19:15;94758.59;;;19.00;28.85
6134;BME280;3098;42.678;23.364;2023-04-29T11:21:44;94643.59;;;18.01;28.25
6134;BME280;3098;42.678;23.364;2023-04-29T11:24:13;94762.06;;;19.01;28.63
6134;BME280;3098;42.678;23.364;2023-04-29T11:26:42;94763.94;;;18.70;29.44
6134;BME280;3098;42.678;23.364;2023-04-29T11:29:11;94758.88;;;18.65;29.17
6134;BME280;3098;42.678;23.364;2023-04-29T11:31:39;94755.66;;;18.56;28.43
6134;BME280;3098;42.678;23.364;2023-04-29T11:34:06;94763.50;;;18.19;29.90
6134;BME280;3098;42.678;23.364;2023-04-29T11:36:34;94749.59;;;17.91;30.19
6134;BME280;3098;42.678;23.364;2023-04-29T11:39:03;94757.16;;;18.31;30.05
6134;BME280;3098;42.678;23.364;2023-04-29T11:41:32;94755.63;;;18.30;30.03
6134;BME280;3098;42.678;23.364;2023-04-29T11:44:00;94757.81;;;18.47;28.37
6134;BME280;3098;42.678;23.364;2023-04-29T11:46:30;94714.41;;;18.45;28.70
6134;BME280;3098;42.678;23.364;2023-04-29T11:48:57;94753.38;;;18.84;29.08
6134;BME280;3098;42.678;23.364;2023-04-29T11:51:26;94697.59;;;18.74;28.46
6134;BME280;3098;42.678;23.364;2023-04-29T11:53:55;94753.28;;;19.04;28.42
6134;BME280;3098;42.678;23.364;2023-04-29T11:56:23;94727.09;;;18.71;29.62
6134;BME280;3098;42.678;23.364;2023-04-29T11:58:56;94754.34;;;18.69;29.66
6134;BME280;3098;42.678;23.364;2023-04-29T12:01:25;94749.75;;;18.70;30.37
6134;BME280;3098;42.678;23.364;2023-04-29T12:03:56;94679.84;;;17.91;30.71
6134;BME280;3098;42.678;23.364;2023-04-29T12:06:27;94661.09;;;17.49;31.63
6134;BME280;3098;42.678;23.364;2023-04-29T12:08:58;94715.72;;;17.83;30.83
6134;BME280;3098;42.678;23.364;2023-04-29T12:11:25;94748.88;;;17.71;31.87
6134;BME280;3098;42.678;23.364;2023-04-29T12:13:55;94724.31;;;17.50;33.11
6134;BME280;3098;42.678;23.364;2023-04-29T12:16:25;94723.47;;;17.46;32.55
6134;BME280;3098;42.678;23.364;2023-04-29T12:18:54;94676.88;;;17.12;32.79
6134;BME280;3098;42.678;23.364;2023-04-29T12:21:22;94659.47;;;17.22;32.33
6134;BME280;3098;42.678;23.364;2023-04-29T12:23:50;94592.69;;;17.13;32.41
6134;BME280;3098;42.678;23.364;2023-04-29T12:26:19;94710.34;;;17.60;32.48
6134;BME280;3098;42.678;23.364;2023-04-29T12:28:47;94645.25;;;17.41;31.53
6134;BME280;3098;42.678;23.364;2023-04-29T12:31:16;94711.06;;;17.80;31.89
6134;BME280;3098;42.678;23.364;2023-04-29T12:33:43;94702.84;;;17.69;32.37
6134;BME280;3098;42.678;23.364;2023-04-29T12:36:15;94546.53;;;16.59;32.76
6134;BME280;3098;42.678;23.364;2023-04-29T12:38:44;94723.19;;;17.70;33.31
6134;BME280;3098;42.678;23.364;2023-04-29T12:41:11;94714.72;;;17.68;33.16
6134;BME280;3098;42.678;23.364;2023-04-29T12:43:44;94721.53;;;18.08;33.71
6134;BME280;3098;42.678;23.364;2023-04-29T12:46:12;94638.72;;;17.84;33.61
6134;BME280;3098;42.678;23.364;2023-04-29T12:48:42;94718.97;;;18.41;32.19
6134;BME280;3098;42.678;23.364;2023-04-29T12:51:11;94726.13;;;18.56;32.86
6134;BME280;3098;42.678;23.364;2023-04-29T12:53:39;94486.75;;;17.19;32.13
6134;BME280;3098;42.678;23.364;2023-04-29T12:56:11;94675.75;;;18.23;32.89
6134;BME280;3098;42.678;23.364;2023-04-29T12:58:42;94667.34;;;18.51;33.21
6134;BME280;3098;42.678;23.364;2023-04-29T13:01:09;94699.47;;;18.70;33.55
6134;BME280;3098;42.678;23.364;2023-04-29T13:03:37;94713.66;;;18.71;32.94
6134;BME280;3098;42.678;23.364;2023-04-29T13:06:06;94703.38;;;18.76;33.18
6134;BME280;3098;42.678;23.364;2023-04-29T13:08:33;94721.56;;;18.86;33.53
6134;BME280;3098;42.678;23.364;2023-04-29T13:11:01;94561.63;;;18.07;33.54
6134;BME280;3098;42.678;23.364;2023-04-29T13:13:28;94631.22;;;18.19;34.36
6134;BME280;3098;42.678;23.364;2023-04-29T13:15:56;94714.78;;;18.96;33.53
6134;BME280;3098;42.678;23.364;2023-04-29T13:18:23;94662.38;;;18.27;34.08
6134;BME280;3098;42.678;23.364;2023-04-29T13:20:51;94718.19;;;18.63;33.66